Time;durP1;ratioP1;P1;durP2;ratioP2;P2;SDS_P1;SDS_P2;PMS_P1;PMS_P2;Temp;Humidity;BMP_temperature;BMP_pressure;BME280_temperature;BME280_humidity;BME280_pressure;Samples;Min_cycle;Max_cycle;Signal;HPM_P1;HPM_P2
2024/01/06 00:01:38;;;;;;;21.63;16.85;;;2.00;99.90;;;;;;5012801;28;20045;-68
2024/01/06 00:04:04;;;;;;;20.15;16.20;;;2.10;99.90;;;;;;5005597;28;20050;-68
2024/01/06 00:06:30;;;;;;;21.02;16.65;;;2.00;99.90;;;;;;5006005;28;20053;-68
2024/01/06 00:08:56;;;;;;;21.70;17.13;;;2.10;99.90;;;;;;4992925;28;20053;-68
2024/01/06 00:11:23;;;;;;;24.40;18.83;;;2.00;99.90;;;;;;4990572;28;20069;-69
2024/01/06 00:13:49;;;;;;;23.05;17.35;;;2.00;99.90;;;;;;5014808;28;20045;-68
2024/01/06 00:16:19;;;;;;;24.27;17.13;;;2.10;99.90;;;;;;4993605;28;20100;-68
2024/01/06 00:18:46;;;;;;;23.95;18.45;;;1.90;99.90;;;;;;5002987;28;20080;-68
2024/01/06 00:21:12;;;;;;;24.20;17.73;;;2.00;99.90;;;;;;5017721;28;20228;-68
2024/01/06 00:23:40;;;;;;;24.85;18.95;;;1.90;99.90;;;;;;5014282;28;20049;-68
2024/01/06 00:26:05;;;;;;;25.30;18.60;;;2.00;99.90;;;;;;5000521;28;20041;-68
2024/01/06 00:28:31;;;;;;;25.02;17.73;;;2.00;99.90;;;;;;4989175;28;20408;-68
2024/01/06 00:30:57;;;;;;;26.40;19.60;;;1.90;99.90;;;;;;4999755;28;20125;-68
2024/01/06 00:33:22;;;;;;;26.15;19.88;;;1.80;99.90;;;;;;5003376;28;20113;-68
2024/01/06 00:35:48;;;;;;;25.83;19.33;;;1.80;99.90;;;;;;5035983;28;20493;-68
2024/01/06 00:38:14;;;;;;;26.30;19.08;;;1.80;99.90;;;;;;4989408;28;20061;-69
2024/01/06 00:40:40;;;;;;;27.23;18.80;;;1.70;99.90;;;;;;5003097;28;20103;-68
2024/01/06 00:43:06;;;;;;;23.48;18.25;;;1.90;99.90;;;;;;5005728;28;20041;-68
2024/01/06 00:45:31;;;;;;;24.42;18.08;;;1.80;99.90;;;;;;5011027;28;20095;-68
2024/01/06 00:47:57;;;;;;;25.20;18.75;;;1.80;99.90;;;;;;5003051;28;20143;-68
2024/01/06 00:50:23;;;;;;;25.52;19.08;;;1.90;99.90;;;;;;4995417;28;20141;-68
2024/01/06 00:52:52;;;;;;;24.67;17.73;;;1.80;99.90;;;;;;5021023;28;20046;-68
2024/01/06 00:55:19;;;;;;;23.08;18.20;;;1.80;99.90;;;;;;4983943;28;20413;-68
2024/01/06 00:57:44;;;;;;;23.10;18.33;;;1.70;99.90;;;;;;4992395;28;20413;-68
2024/01/06 01:00:11;;;;;;;26.58;18.17;;;1.80;99.90;;;;;;5000240;28;20045;-68
2024/01/06 01:02:37;;;;;;;23.50;17.67;;;1.70;99.90;;;;;;4991566;28;20148;-68
2024/01/06 01:05:03;;;;;;;24.17;17.33;;;1.70;99.90;;;;;;5000975;28;20153;-68
2024/01/06 01:07:28;;;;;;;23.52;17.42;;;1.70;99.90;;;;;;5002471;28;20041;-68
2024/01/06 01:09:56;;;;;;;22.38;16.23;;;1.70;99.90;;;;;;5000812;28;20123;-68
2024/01/06 01:12:23;;;;;;;23.80;17.45;;;1.70;99.90;;;;;;4988513;28;20068;-68
2024/01/06 01:14:49;;;;;;;23.80;17.85;;;1.70;99.90;;;;;;5001411;28;20169;-68
2024/01/06 01:17:15;;;;;;;25.20;17.48;;;1.70;99.90;;;;;;4998419;28;20081;-68
2024/01/06 01:19:40;;;;;;;25.13;18.67;;;1.70;99.90;;;;;;4993546;28;20105;-68
2024/01/06 01:22:06;;;;;;;25.35;18.55;;;1.70;99.90;;;;;;4997879;28;20042;-68
2024/01/06 01:24:32;;;;;;;28.15;17.33;;;1.80;99.90;;;;;;4993449;28;20421;-68
2024/01/06 01:26:58;;;;;;;25.80;18.45;;;1.60;99.90;;;;;;4982419;28;20061;-68
2024/01/06 01:29:24;;;;;;;25.45;18.13;;;1.70;99.90;;;;;;4993178;28;20634;-68
2024/01/06 01:31:49;;;;;;;26.75;18.10;;;1.60;99.90;;;;;;5003212;28;20454;-68
2024/01/06 01:34:15;;;;;;;28.10;19.00;;;1.70;99.90;;;;;;5000306;28;20617;-68
2024/01/06 01:36:41;;;;;;;29.55;19.92;;;1.70;99.90;;;;;;4997310;28;20050;-68
2024/01/06 01:39:07;;;;;;;29.38;20.20;;;1.70;99.90;;;;;;5032476;28;20157;-68
2024/01/06 01:41:33;;;;;;;27.95;19.35;;;1.60;99.90;;;;;;4988567;28;20417;-68
2024/01/06 01:43:58;;;;;;;27.88;18.65;;;1.60;99.90;;;;;;5001983;28;20061;-68
2024/01/06 01:46:28;;;;;;;26.30;18.27;;;1.60;99.90;;;;;;4985821;28;20060;-68
2024/01/06 01:48:59;;;;;;;27.10;18.33;;;1.50;99.90;;;;;;5000928;28;20124;-68
2024/01/06 01:51:30;;;;;;;22.92;16.48;;;1.60;99.90;;;;;;5007846;28;20056;-68
2024/01/06 01:53:59;;;;;;;22.73;17.02;;;1.70;99.90;;;;;;5003230;28;20042;-68
2024/01/06 01:56:26;;;;;;;25.60;17.40;;;1.60;99.90;;;;;;4996723;28;20073;-68
2024/01/06 01:58:52;;;;;;;27.58;18.10;;;1.40;99.90;;;;;;4995076;28;20046;-68
2024/01/06 02:01:18;;;;;;;28.38;18.00;;;1.40;99.90;;;;;;4986232;28;20085;-68
2024/01/06 02:03:44;;;;;;;23.77;17.02;;;1.50;99.90;;;;;;5015901;28;20549;-68
2024/01/06 02:06:13;;;;;;;24.92;17.48;;;1.50;99.90;;;;;;5000012;28;20124;-68
2024/01/06 02:08:39;;;;;;;25.20;17.88;;;1.50;99.90;;;;;;4995492;28;20108;-68
2024/01/06 02:11:05;;;;;;;24.20;17.13;;;1.50;99.90;;;;;;4988470;28;20501;-68
2024/01/06 02:13:35;;;;;;;26.90;18.30;;;1.60;99.90;;;;;;4998796;28;20044;-68
2024/01/06 02:16:02;;;;;;;25.90;17.27;;;1.50;99.90;;;;;;5002659;28;20132;-68
2024/01/06 02:18:28;;;;;;;28.35;18.23;;;1.50;99.90;;;;;;5031317;28;20057;-68
2024/01/06 02:20:58;;;;;;;24.15;16.67;;;1.60;99.90;;;;;;4999752;28;20046;-68
2024/01/06 02:23:23;;;;;;;24.17;16.60;;;1.40;99.90;;;;;;4983400;28;20046;-68
2024/01/06 02:25:49;;;;;;;23.02;17.50;;;1.60;99.90;;;;;;4986109;28;20587;-68
2024/01/06 02:28:15;;;;;;;24.67;16.75;;;1.50;99.90;;;;;;5021282;28;20485;-68
2024/01/06 02:30:41;;;;;;;21.55;15.90;;;1.50;99.90;;;;;;4988578;28;20037;-68
2024/01/06 02:33:06;;;;;;;24.42;17.23;;;1.40;99.90;;;;;;4996884;28;20034;-68
2024/01/06 02:35:32;;;;;;;22.58;16.77;;;1.40;99.90;;;;;;4994716;28;20069;-68
2024/01/06 02:37:58;;;;;;;22.48;16.70;;;1.50;99.90;;;;;;5000318;28;20066;-68
2024/01/06 02:40:24;;;;;;;24.88;16.67;;;1.40;99.90;;;;;;4987322;28;20044;-68
2024/01/06 02:42:49;;;;;;;22.80;17.30;;;1.50;99.90;;;;;;4991360;28;20060;-68
2024/01/06 02:45:15;;;;;;;21.90;16.05;;;1.40;99.90;;;;;;5018316;28;20069;-68
2024/01/06 02:47:41;;;;;;;23.10;17.77;;;1.40;99.90;;;;;;4997936;28;20034;-68
2024/01/06 02:50:07;;;;;;;23.00;16.85;;;1.30;99.90;;;;;;4999827;28;20140;-68
2024/01/06 02:52:33;;;;;;;23.13;16.88;;;1.30;99.90;;;;;;5017732;28;20128;-68
2024/01/06 02:54:59;;;;;;;23.30;17.75;;;1.50;99.90;;;;;;4986970;28;20034;-68
2024/01/06 02:57:24;;;;;;;22.00;16.60;;;1.60;99.90;;;;;;4980413;28;20406;-68
2024/01/06 02:59:50;;;;;;;25.25;17.73;;;1.40;99.90;;;;;;5017483;28;20038;-68
2024/01/06 03:02:16;;;;;;;21.50;15.98;;;1.50;99.90;;;;;;4984806;28;20524;-68
2024/01/06 03:04:42;;;;;;;22.58;16.10;;;1.60;99.90;;;;;;4985058;28;20034;-68
2024/01/06 03:07:08;;;;;;;24.60;17.60;;;1.50;99.90;;;;;;4984302;28;20385;-68
2024/01/06 03:09:34;;;;;;;25.70;17.13;;;1.50;99.90;;;;;;4994982;28;20040;-68
2024/01/06 03:11:59;;;;;;;24.20;17.05;;;1.50;99.90;;;;;;4998937;28;20095;-68
2024/01/06 03:14:25;;;;;;;23.67;15.93;;;1.30;99.90;;;;;;5023627;28;20322;-68
2024/01/06 03:16:51;;;;;;;27.58;18.75;;;1.20;99.90;;;;;;4997854;28;20052;-68
2024/01/06 03:19:16;;;;;;;28.50;18.75;;;1.30;99.90;;;;;;4998910;28;20291;-68
2024/01/06 03:21:42;;;;;;;29.17;18.63;;;1.40;99.90;;;;;;4992309;28;20409;-68
2024/01/06 03:24:09;;;;;;;27.10;17.88;;;1.30;99.90;;;;;;4996246;28;20056;-68
2024/01/06 03:26:35;;;;;;;27.75;19.15;;;1.30;99.90;;;;;;5000277;28;20045;-68
2024/01/06 03:29:02;;;;;;;24.95;17.27;;;1.30;99.90;;;;;;4983599;28;20335;-68
2024/01/06 03:31:29;;;;;;;24.88;16.73;;;1.30;99.90;;;;;;5001818;28;20041;-68
2024/01/06 03:33:55;;;;;;;25.70;17.27;;;1.30;99.90;;;;;;5000518;28;20397;-68
2024/01/06 03:36:21;;;;;;;25.35;17.40;;;1.10;99.90;;;;;;5026534;28;20547;-68
2024/01/06 03:38:47;;;;;;;25.90;16.52;;;1.20;99.90;;;;;;4988209;28;20196;-69
2024/01/06 03:41:13;;;;;;;23.90;17.35;;;1.30;99.90;;;;;;4999334;28;20480;-68
2024/01/06 03:43:39;;;;;;;25.85;17.90;;;1.30;99.90;;;;;;5001170;28;20044;-68
2024/01/06 03:46:05;;;;;;;23.63;17.13;;;1.10;99.90;;;;;;5008954;28;20054;-68
2024/01/06 03:48:31;;;;;;;26.50;18.83;;;1.20;99.90;;;;;;4991399;28;20401;-68
2024/01/06 03:51:01;;;;;;;27.25;18.23;;;1.00;99.90;;;;;;4984054;28;20505;-68
2024/01/06 03:53:27;;;;;;;27.42;17.67;;;1.10;99.90;;;;;;5000871;28;20124;-68
2024/01/06 03:55:53;;;;;;;25.45;18.40;;;1.20;99.90;;;;;;5016894;28;20624;-68
2024/01/06 03:58:18;;;;;;;27.63;18.55;;;1.20;99.90;;;;;;5005346;28;20107;-68
2024/01/06 04:00:44;;;;;;;25.30;18.27;;;1.20;99.90;;;;;;4992868;28;20125;-68
2024/01/06 04:03:10;;;;;;;26.75;17.85;;;1.10;99.90;;;;;;5018111;28;20042;-68
2024/01/06 04:05:35;;;;;;;25.73;17.25;;;1.20;99.90;;;;;;4987615;28;20054;-68
2024/01/06 04:08:01;;;;;;;24.88;16.92;;;1.20;99.90;;;;;;4999157;28;20041;-68
2024/01/06 04:10:27;;;;;;;26.10;17.27;;;1.10;99.90;;;;;;5003395;28;20284;-68
2024/01/06 04:12:52;;;;;;;23.48;17.52;;;1.10;99.90;;;;;;5004836;28;20037;-68
2024/01/06 04:15:18;;;;;;;22.92;16.02;;;1.10;99.90;;;;;;5001462;28;20137;-68
2024/01/06 04:17:48;;;;;;;22.73;16.08;;;1.20;99.90;;;;;;4991760;28;20041;-68
2024/01/06 04:20:13;;;;;;;22.38;15.30;;;1.20;99.90;;;;;;5027757;28;20394;-68
2024/01/06 04:22:39;;;;;;;21.60;14.88;;;1.10;99.90;;;;;;4984518;28;20053;-68
2024/01/06 04:25:05;;;;;;;21.55;15.73;;;1.20;99.90;;;;;;4989900;28;20037;-68
2024/01/06 04:27:33;;;;;;;22.58;15.88;;;1.30;99.90;;;;;;4990212;28;20126;-68
2024/01/06 04:29:59;;;;;;;24.20;16.00;;;1.20;99.90;;;;;;5000979;28;20045;-68
2024/01/06 04:32:25;;;;;;;23.88;15.75;;;1.30;99.90;;;;;;4997128;28;20041;-68
2024/01/06 04:34:51;;;;;;;21.77;15.52;;;1.20;99.90;;;;;;4992429;28;20068;-68
2024/01/06 04:37:16;;;;;;;19.95;14.70;;;1.20;99.90;;;;;;5002882;28;20074;-68
2024/01/06 04:39:42;;;;;;;19.98;14.63;;;1.10;99.90;;;;;;4982272;28;20107;-68
2024/01/06 04:42:08;;;;;;;22.65;15.65;;;1.30;99.90;;;;;;4984266;28;20042;-68
2024/01/06 04:44:34;;;;;;;21.17;15.20;;;1.30;99.90;;;;;;4998763;28;20092;-68
2024/01/06 04:47:00;;;;;;;22.27;16.05;;;1.10;99.90;;;;;;4999345;28;20041;-68
2024/01/06 04:49:25;;;;;;;23.30;15.02;;;1.20;99.90;;;;;;4980712;28;20038;-68
2024/01/06 04:51:51;;;;;;;22.75;15.27;;;1.10;99.90;;;;;;5012683;28;20107;-68
2024/01/06 04:54:17;;;;;;;20.65;14.80;;;1.10;99.90;;;;;;4999684;28;20101;-68
2024/01/06 04:56:43;;;;;;;22.65;15.23;;;1.20;99.90;;;;;;4990990;28;20154;-68
2024/01/06 04:59:08;;;;;;;20.65;14.88;;;1.10;99.90;;;;;;5003360;28;20037;-68
2024/01/06 05:01:34;;;;;;;21.77;16.10;;;1.10;99.90;;;;;;4989124;28;20050;-68
2024/01/06 05:04:00;;;;;;;21.95;15.75;;;1.20;99.90;;;;;;4986662;28;20046;-68
2024/01/06 05:06:26;;;;;;;19.40;15.07;;;1.20;99.90;;;;;;4987815;28;20108;-68
2024/01/06 05:08:52;;;;;;;22.08;15.63;;;1.10;99.90;;;;;;4989889;28;20333;-68
2024/01/06 05:11:18;;;;;;;21.38;14.68;;;1.10;99.90;;;;;;5005848;28;20042;-69
2024/01/06 05:13:44;;;;;;;21.75;15.65;;;1.10;99.90;;;;;;5006295;28;20162;-68
2024/01/06 05:16:09;;;;;;;22.20;16.77;;;1.10;99.90;;;;;;4999395;28;20061;-68
2024/01/06 05:18:35;;;;;;;20.73;16.25;;;1.10;99.90;;;;;;5017577;28;20041;-68
2024/01/06 05:21:02;;;;;;;23.58;16.02;;;1.20;99.90;;;;;;5011513;28;20489;-68
2024/01/06 05:23:28;;;;;;;22.80;16.85;;;1.20;99.90;;;;;;5002670;28;20228;-68
2024/01/06 05:25:53;;;;;;;23.02;15.88;;;1.20;99.90;;;;;;5004996;28;20690;-68
2024/01/06 05:28:19;;;;;;;21.48;16.20;;;1.20;99.90;;;;;;5000877;28;20045;-68
2024/01/06 05:30:45;;;;;;;20.83;15.90;;;1.20;99.90;;;;;;4985340;28;20053;-68
2024/01/06 05:33:13;;;;;;;22.15;16.52;;;1.20;99.90;;;;;;4982950;28;20488;-68
2024/01/06 05:35:39;;;;;;;21.73;15.60;;;1.20;99.90;;;;;;5014296;28;20373;-68
2024/01/06 05:38:05;;;;;;;22.42;16.50;;;1.20;99.90;;;;;;5023527;28;20050;-68
2024/01/06 05:40:30;;;;;;;20.90;16.13;;;1.30;99.90;;;;;;5015232;28;20126;-68
2024/01/06 05:42:56;;;;;;;21.50;15.80;;;1.30;99.90;;;;;;5001114;28;20475;-68
2024/01/06 05:45:23;;;;;;;21.55;16.90;;;1.40;99.90;;;;;;4984712;28;20191;-68
2024/01/06 05:47:49;;;;;;;20.88;15.32;;;1.20;99.90;;;;;;4991623;28;20038;-68
2024/01/06 05:50:17;;;;;;;22.83;17.00;;;1.30;99.90;;;;;;5006193;28;20042;-68
2024/01/06 05:52:43;;;;;;;22.63;16.92;;;1.10;99.90;;;;;;5039273;28;20124;-68
2024/01/06 05:55:09;;;;;;;22.65;16.67;;;1.20;99.90;;;;;;5002180;28;20192;-68
2024/01/06 05:57:35;;;;;;;21.20;16.63;;;1.10;99.90;;;;;;5023670;28;20045;-68
2024/01/06 06:00:01;;;;;;;24.73;16.52;;;1.10;99.90;;;;;;5006559;28;20041;-68
2024/01/06 06:02:27;;;;;;;21.48;15.95;;;1.10;99.90;;;;;;5005583;28;20137;-68
2024/01/06 06:04:53;;;;;;;24.17;16.02;;;1.20;99.90;;;;;;4995186;28;20108;-68
2024/01/06 06:07:20;;;;;;;21.67;15.65;;;1.10;99.90;;;;;;5001943;28;20033;-68
2024/01/06 06:09:48;;;;;;;19.70;15.25;;;1.20;99.90;;;;;;4991104;28;20042;-68
2024/01/06 06:12:14;;;;;;;19.88;15.25;;;1.20;99.90;;;;;;4998046;28;20128;-68
2024/01/06 06:14:40;;;;;;;22.50;15.77;;;1.20;99.90;;;;;;5000785;28;20666;-68
2024/01/06 06:17:06;;;;;;;20.67;15.45;;;1.30;99.90;;;;;;5003199;28;20054;-68
2024/01/06 06:19:32;;;;;;;21.55;16.33;;;1.20;99.90;;;;;;4986442;28;20095;-68
2024/01/06 06:21:58;;;;;;;18.15;14.90;;;1.20;99.90;;;;;;4997712;28;20042;-68
2024/01/06 06:24:23;;;;;;;19.10;14.93;;;1.10;99.90;;;;;;4996371;28;20042;-68
2024/01/06 06:26:49;;;;;;;20.13;15.40;;;1.20;99.90;;;;;;5007784;28;20046;-68
2024/01/06 06:29:15;;;;;;;18.52;14.40;;;1.20;99.90;;;;;;5005102;28;20405;-68
2024/01/06 06:31:43;;;;;;;18.60;14.05;;;1.20;99.90;;;;;;4987292;28;20046;-68
2024/01/06 06:34:09;;;;;;;19.63;14.18;;;1.10;99.90;;;;;;5000534;28;20525;-68
2024/01/06 06:36:38;;;;;;;21.13;14.75;;;1.20;99.90;;;;;;4994774;28;20325;-68
2024/01/06 06:39:04;;;;;;;18.10;14.75;;;1.30;99.90;;;;;;5039294;28;20495;-68
2024/01/06 06:41:33;;;;;;;18.00;14.30;;;1.30;99.90;;;;;;4989206;28;20060;-68
2024/01/06 06:43:59;;;;;;;18.73;13.77;;;1.10;99.90;;;;;;5021417;28;20046;-68
2024/01/06 06:46:25;;;;;;;18.48;13.68;;;1.10;99.90;;;;;;5021652;28;20046;-68
2024/01/06 06:48:51;;;;;;;19.95;14.60;;;1.20;99.90;;;;;;4991351;28;20080;-68
2024/01/06 06:51:17;;;;;;;22.35;15.95;;;1.20;99.90;;;;;;5006331;28;20454;-68
2024/01/06 06:53:43;;;;;;;21.02;15.27;;;1.20;99.90;;;;;;4997863;28;20432;-68
2024/01/06 06:56:09;;;;;;;21.60;15.52;;;1.10;99.90;;;;;;5028022;28;20046;-68
2024/01/06 06:58:35;;;;;;;22.95;15.57;;;1.30;99.90;;;;;;4990683;28;20304;-68
2024/01/06 07:01:00;;;;;;;19.70;15.32;;;1.20;99.90;;;;;;5015336;28;20493;-68
2024/01/06 07:03:26;;;;;;;20.85;15.52;;;1.30;99.90;;;;;;5003493;28;20046;-68
2024/01/06 07:05:52;;;;;;;21.23;15.52;;;1.20;99.90;;;;;;5000784;28;20041;-68
2024/01/06 07:08:18;;;;;;;21.70;15.35;;;1.20;99.90;;;;;;5005045;28;20052;-68
2024/01/06 07:10:44;;;;;;;20.40;15.45;;;1.20;99.90;;;;;;5002295;28;20093;-68
2024/01/06 07:13:10;;;;;;;22.25;16.38;;;1.20;99.90;;;;;;5001497;28;20073;-68
2024/01/06 07:15:36;;;;;;;23.75;16.08;;;1.10;99.90;;;;;;5004470;28;20455;-68
2024/01/06 07:18:01;;;;;;;21.48;16.02;;;1.30;99.90;;;;;;5011800;28;20104;-68
2024/01/06 07:20:27;;;;;;;24.77;17.13;;;1.20;99.90;;;;;;5000636;28;20393;-68
2024/01/06 07:22:53;;;;;;;22.73;16.52;;;1.20;99.90;;;;;;4998500;28;20046;-68
2024/01/06 07:25:19;;;;;;;21.85;16.65;;;1.20;99.90;;;;;;4999958;28;20121;-68
2024/01/06 07:27:44;;;;;;;26.88;18.00;;;1.20;99.90;;;;;;5033084;28;20041;-68
2024/01/06 07:30:11;;;;;;;23.45;17.02;;;1.20;99.90;;;;;;5012948;28;20041;-68
2024/01/06 07:32:36;;;;;;;23.52;17.58;;;1.20;99.90;;;;;;4987889;28;20497;-68
2024/01/06 07:35:02;;;;;;;23.77;16.90;;;1.20;99.90;;;;;;5026360;28;20092;-68
2024/01/06 07:37:28;;;;;;;23.35;17.42;;;1.30;99.90;;;;;;4997183;28;20089;-68
2024/01/06 07:39:56;;;;;;;23.92;18.23;;;1.30;99.90;;;;;;4983286;28;20068;-67
2024/01/06 07:42:22;;;;;;;22.60;17.63;;;1.20;99.90;;;;;;5006123;28;20041;-68
2024/01/06 07:44:47;;;;;;;24.90;18.30;;;1.30;99.90;;;;;;5000761;28;20371;-67
2024/01/06 07:47:14;;;;;;;23.45;18.08;;;1.20;99.90;;;;;;5008844;28;20112;-68
2024/01/06 07:49:40;;;;;;;26.48;19.13;;;1.30;99.90;;;;;;5016897;28;20108;-68
2024/01/06 07:52:06;;;;;;;23.33;17.30;;;1.30;99.90;;;;;;5012247;28;20116;-67
2024/01/06 07:54:31;;;;;;;25.10;18.30;;;1.30;99.90;;;;;;4999066;28;20482;-67
2024/01/06 07:56:57;;;;;;;23.77;17.58;;;1.40;99.90;;;;;;4998875;28;20069;-68
2024/01/06 07:59:23;;;;;;;21.25;16.35;;;1.30;99.90;;;;;;5007339;28;20046;-68
2024/01/06 08:01:49;;;;;;;22.45;16.45;;;1.30;99.90;;;;;;4995961;28;20103;-67
2024/01/06 08:04:15;;;;;;;20.92;15.95;;;1.40;99.90;;;;;;4981332;28;20046;-67
2024/01/06 08:06:41;;;;;;;21.67;16.10;;;1.40;99.90;;;;;;4986026;28;20448;-68
2024/01/06 08:09:08;;;;;;;21.35;16.98;;;1.50;99.90;;;;;;4996566;28;20042;-67
2024/01/06 08:11:33;;;;;;;23.10;18.33;;;1.40;99.90;;;;;;4996066;28;20048;-67
2024/01/06 08:13:59;;;;;;;24.92;18.30;;;1.50;99.90;;;;;;4996859;28;20041;-67
2024/01/06 08:16:26;;;;;;;24.92;17.73;;;1.40;99.90;;;;;;5001360;28;20076;-68
2024/01/06 08:18:51;;;;;;;20.92;17.05;;;1.40;99.90;;;;;;5001155;28;20091;-68
2024/01/06 08:21:17;;;;;;;23.30;17.58;;;1.50;99.90;;;;;;5004145;28;20756;-68
2024/01/06 08:23:43;;;;;;;25.88;18.65;;;1.50;99.90;;;;;;5001004;28;20081;-68
2024/01/06 08:26:09;;;;;;;20.42;16.67;;;1.50;99.90;;;;;;4984971;28;20050;-68
2024/01/06 08:28:35;;;;;;;22.02;16.95;;;1.40;99.90;;;;;;4996410;28;20049;-68
2024/01/06 08:31:01;;;;;;;23.85;18.15;;;1.50;99.90;;;;;;4986255;28;20042;-67
2024/01/06 08:33:26;;;;;;;25.88;18.98;;;1.50;99.90;;;;;;5028423;28;20536;-67
2024/01/06 08:35:52;;;;;;;25.67;19.25;;;1.50;99.90;;;;;;5003782;28;20095;-67
2024/01/06 08:38:19;;;;;;;28.17;20.52;;;1.50;99.90;;;;;;5005422;28;20104;-67
2024/01/06 08:40:47;;;;;;;27.85;20.58;;;1.50;99.90;;;;;;4999639;28;20379;-68
2024/01/06 08:43:14;;;;;;;27.35;19.55;;;1.50;99.90;;;;;;5000376;28;20042;-67
2024/01/06 08:45:39;;;;;;;27.83;21.13;;;1.50;99.90;;;;;;5000940;28;20053;-67
2024/01/06 08:48:05;;;;;;;27.75;19.70;;;1.60;99.90;;;;;;4999777;28;20041;-67
2024/01/06 08:50:31;;;;;;;26.90;19.73;;;1.60;99.90;;;;;;5002615;28;20042;-67
2024/01/06 08:52:57;;;;;;;27.63;19.50;;;1.50;99.90;;;;;;4988628;28;20054;-68
2024/01/06 08:55:22;;;;;;;25.95;19.67;;;1.60;99.90;;;;;;4986905;28;20416;-68
2024/01/06 08:57:48;;;;;;;26.30;19.60;;;1.50;99.90;;;;;;5002804;28;20145;-68
2024/01/06 09:00:15;;;;;;;24.67;18.83;;;1.60;99.90;;;;;;4983923;28;20073;-68
2024/01/06 09:02:41;;;;;;;24.92;18.75;;;1.60;99.90;;;;;;4999159;28;20113;-68
2024/01/06 09:05:07;;;;;;;25.35;18.10;;;1.50;99.90;;;;;;4986282;28;20557;-68
2024/01/06 09:07:33;;;;;;;22.25;17.40;;;1.50;99.90;;;;;;4995970;28;20073;-68
2024/01/06 09:09:59;;;;;;;24.05;18.02;;;1.60;99.90;;;;;;5030871;28;20042;-68
2024/01/06 09:12:25;;;;;;;22.67;17.13;;;1.60;99.90;;;;;;5021928;28;20042;-67
2024/01/06 09:14:51;;;;;;;23.23;17.60;;;1.60;99.90;;;;;;5004630;28;20100;-68
2024/01/06 09:17:16;;;;;;;22.20;16.38;;;1.60;99.90;;;;;;5005636;28;20358;-68
2024/01/06 09:19:42;;;;;;;23.80;16.60;;;1.70;99.90;;;;;;5002170;28;20081;-68
2024/01/06 09:22:08;;;;;;;20.80;15.68;;;1.70;99.90;;;;;;4987583;28;20047;-68
2024/01/06 09:24:34;;;;;;;20.88;16.02;;;1.60;99.90;;;;;;4985812;28;20038;-68
2024/01/06 09:27:00;;;;;;;21.48;16.45;;;1.60;99.90;;;;;;4993628;28;20050;-68
2024/01/06 09:29:25;;;;;;;23.38;17.35;;;1.60;99.90;;;;;;5003551;28;20396;-68
2024/01/06 09:31:52;;;;;;;22.67;16.77;;;1.60;99.90;;;;;;5004200;28;20048;-68
2024/01/06 09:34:17;;;;;;;22.45;17.45;;;1.60;99.90;;;;;;4998262;28;20465;-68
2024/01/06 09:36:43;;;;;;;21.48;16.60;;;1.60;99.90;;;;;;5006915;28;20113;-68
2024/01/06 09:39:09;;;;;;;25.05;18.40;;;1.60;99.90;;;;;;4999287;28;20236;-68
2024/01/06 09:41:35;;;;;;;21.02;16.30;;;1.60;99.90;;;;;;4996248;28;20096;-68
2024/01/06 09:44:01;;;;;;;23.73;18.05;;;1.70;99.90;;;;;;4992768;28;20045;-67
2024/01/06 09:46:31;;;;;;;22.30;17.02;;;1.60;99.90;;;;;;5011189;28;20142;-68
2024/01/06 09:48:58;;;;;;;22.92;16.92;;;1.60;99.90;;;;;;5000000;28;20723;-68
2024/01/06 09:51:24;;;;;;;22.77;17.05;;;1.70;99.90;;;;;;4998586;28;20053;-67
2024/01/06 09:53:59;;;;;;;22.42;16.60;;;1.70;99.90;;;;;;4999522;28;20119;-67
2024/01/06 09:56:27;;;;;;;26.73;17.42;;;1.70;99.90;;;;;;5003430;28;20523;-68
2024/01/06 09:58:54;;;;;;;23.80;18.00;;;1.80;99.90;;;;;;4998237;28;20123;-68
2024/01/06 10:01:21;;;;;;;24.88;18.42;;;1.80;99.90;;;;;;4997074;28;20050;-67
2024/01/06 10:03:47;;;;;;;22.70;16.95;;;1.80;99.90;;;;;;4991145;28;20041;-68
2024/01/06 10:06:15;;;;;;;21.10;15.77;;;1.80;99.90;;;;;;4985067;28;20272;-68
2024/01/06 10:08:51;;;;;;;20.63;16.35;;;1.80;99.90;;;;;;4982982;28;20338;-68
2024/01/06 10:11:18;;;;;;;22.88;16.60;;;1.80;99.90;;;;;;4992208;28;20108;-67
2024/01/06 10:13:44;;;;;;;20.88;16.83;;;1.70;99.90;;;;;;4994502;28;20121;-67
2024/01/06 10:16:10;;;;;;;22.75;16.88;;;1.70;99.90;;;;;;5008081;28;20129;-67
2024/01/06 10:18:36;;;;;;;21.08;16.90;;;1.70;99.90;;;;;;4996557;28;20409;-68
2024/01/06 10:21:05;;;;;;;21.00;16.17;;;1.70;99.90;;;;;;5029003;28;20042;-68
2024/01/06 10:23:34;;;;;;;21.67;16.30;;;1.70;99.90;;;;;;4998328;28;20053;-68
2024/01/06 10:26:00;;;;;;;22.23;16.08;;;1.80;99.90;;;;;;5011793;28;20139;-68
2024/01/06 10:28:25;;;;;;;22.13;16.38;;;1.80;99.90;;;;;;5000193;28;20042;-68
2024/01/06 10:30:56;;;;;;;20.08;15.88;;;1.90;99.90;;;;;;4997386;28;20060;-68
2024/01/06 10:33:26;;;;;;;19.98;15.57;;;1.70;99.90;;;;;;4995934;28;20162;-68
2024/01/06 10:35:55;;;;;;;17.83;14.00;;;1.70;99.90;;;;;;4996344;28;20073;-68
2024/01/06 10:38:21;;;;;;;18.15;13.40;;;1.80;99.90;;;;;;4981968;28;20049;-68
2024/01/06 10:40:56;;;;;;;18.02;13.60;;;1.80;99.90;;;;;;5032004;28;20068;-68
2024/01/06 10:43:25;;;;;;;16.80;13.40;;;1.80;99.90;;;;;;4984711;28;20112;-68
2024/01/06 10:45:51;;;;;;;16.38;11.73;;;2.00;99.90;;;;;;5021377;28;20128;-68
2024/01/06 10:48:18;;;;;;;15.30;11.55;;;1.90;99.90;;;;;;4982468;28;20038;-68
2024/01/06 10:50:45;;;;;;;13.05;10.50;;;1.90;99.90;;;;;;4992265;28;20088;-68
2024/01/06 10:53:13;;;;;;;13.90;11.02;;;1.90;99.90;;;;;;5026766;28;20053;-68
2024/01/06 10:55:40;;;;;;;13.13;10.43;;;2.00;99.90;;;;;;5008441;28;20139;-67
2024/01/06 10:58:07;;;;;;;14.23;11.57;;;2.00;99.90;;;;;;5022251;28;20042;-68
2024/01/06 11:00:33;;;;;;;13.93;10.80;;;1.90;99.90;;;;;;4990176;28;20173;-68
2024/01/06 11:03:01;;;;;;;13.45;10.80;;;2.00;99.90;;;;;;4983698;28;20452;-68
2024/01/06 11:05:27;;;;;;;13.35;10.43;;;2.00;99.90;;;;;;4993541;28;20082;-67
2024/01/06 11:07:59;;;;;;;14.35;11.75;;;2.00;99.90;;;;;;4988351;28;20069;-68
2024/01/06 11:10:27;;;;;;;14.90;11.43;;;2.00;99.90;;;;;;4983102;28;20053;-70
2024/01/06 11:13:13;;;;;;;16.13;12.95;;;2.00;99.90;;;;;;4982141;28;20116;-69
2024/01/06 11:15:47;;;;;;;16.65;12.88;;;2.10;99.90;;;;;;4994698;28;20037;-77
2024/01/06 11:18:37;;;;;;;17.17;12.70;;;2.10;99.90;;;;;;4974457;28;20045;-75
2024/01/06 11:21:18;;;;;;;16.70;12.98;;;2.30;99.90;;;;;;4997651;28;20056;-76
2024/01/06 11:23:45;;;;;;;17.55;13.20;;;2.40;99.90;;;;;;4979783;28;20877;-73
2024/01/06 11:26:11;;;;;;;16.92;13.15;;;2.40;99.90;;;;;;4996325;28;20053;-73
2024/01/06 11:28:47;;;;;;;16.55;12.93;;;2.30;99.90;;;;;;4975140;28;20030;-78
2024/01/06 11:31:13;;;;;;;16.65;12.38;;;2.40;99.90;;;;;;4996524;28;20049;-77
2024/01/06 11:33:49;;;;;;;15.25;12.30;;;2.40;99.90;;;;;;4986938;28;20064;-75
2024/01/06 11:36:20;;;;;;;16.88;12.75;;;2.30;99.90;;;;;;5023821;28;20142;-79
2024/01/06 11:38:50;;;;;;;14.48;11.80;;;2.50;99.90;;;;;;4995483;28;20408;-76
2024/01/06 11:41:47;;;;;;;15.05;12.32;;;2.30;99.90;;;;;;4997741;28;20141;-74
2024/01/06 11:44:13;;;;;;;14.93;11.88;;;2.40;99.90;;;;;;4998884;28;20100;-73
2024/01/06 11:46:41;;;;;;;16.00;12.57;;;2.60;99.90;;;;;;4993003;28;20053;-76
2024/01/06 11:49:08;;;;;;;15.88;12.52;;;2.60;99.90;;;;;;4995574;28;20049;-76
2024/01/06 11:51:34;;;;;;;15.80;12.40;;;2.50;99.90;;;;;;4985425;28;20488;-76
2024/01/06 11:53:59;;;;;;;16.73;12.75;;;2.40;99.90;;;;;;4988278;28;20659;-76
2024/01/06 11:56:25;;;;;;;17.95;12.70;;;2.40;99.90;;;;;;4988648;28;20108;-76
2024/01/06 11:58:51;;;;;;;16.95;12.50;;;2.30;99.90;;;;;;4997867;28;20050;-76
2024/01/06 12:01:17;;;;;;;16.10;12.57;;;2.30;99.90;;;;;;5026105;28;20525;-76
2024/01/06 12:03:42;;;;;;;17.38;13.18;;;2.30;99.90;;;;;;4992901;28;20041;-76
2024/01/06 12:06:09;;;;;;;15.93;12.73;;;2.30;99.90;;;;;;4980378;28;20053;-76
2024/01/06 12:08:35;;;;;;;16.92;13.20;;;2.20;99.90;;;;;;4999937;28;20081;-76
2024/01/06 12:11:04;;;;;;;19.15;14.15;;;2.20;99.90;;;;;;4994020;28;20515;-76
2024/01/06 12:13:31;;;;;;;18.30;14.50;;;2.10;99.90;;;;;;4995979;28;20467;-76
2024/01/06 12:15:56;;;;;;;21.02;13.88;;;2.10;99.90;;;;;;5005100;28;20112;-76
2024/01/06 12:18:24;;;;;;;17.20;13.82;;;1.90;99.90;;;;;;5014168;28;20489;-76
2024/01/06 12:20:51;;;;;;;15.70;12.25;;;1.90;99.90;;;;;;4980971;28;20049;-76
2024/01/06 12:23:29;;;;;;;15.68;12.10;;;2.00;99.90;;;;;;4996869;28;20492;-76
2024/01/06 12:26:01;;;;;;;13.95;11.75;;;2.00;99.90;;;;;;4996437;28;20045;-76
2024/01/06 12:28:27;;;;;;;17.70;12.25;;;2.10;99.90;;;;;;5024817;28;20121;-76
2024/01/06 12:30:54;;;;;;;15.38;13.48;;;2.10;99.90;;;;;;4979319;28;20915;-76
2024/01/06 12:33:20;;;;;;;15.93;12.45;;;2.00;99.90;;;;;;4982039;28;20100;-76